sensor_id;sensor_type;location;lat;lon;timestamp;pressure;altitude;pressure_sealevel;temperature;humidity
9439;BME280;5176;42.622;25.386;2023-03-23T00:01:43;97142.94;;;10.81;100.00
9439;BME280;5176;42.622;25.386;2023-03-23T00:04:13;97154.69;;;10.88;100.00
9439;BME280;5176;42.622;25.386;2023-03-23T00:06:42;97151.34;;;10.86;100.00
9439;BME280;5176;42.622;25.386;2023-03-23T00:09:12;97152.06;;;10.88;100.00
9439;BME280;5176;42.622;25.386;2023-03-23T00:11:43;97147.22;;;10.82;100.00
9439;BME280;5176;42.622;25.386;2023-03-23T00:14:14;97138.63;;;10.80;100.00
9439;BME280;5176;42.622;25.386;2023-03-23T00:16:43;97139.34;;;10.82;100.00
9439;BME280;5176;42.622;25.386;2023-03-23T00:19:13;97129.63;;;10.84;100.00
9439;BME280;5176;42.622;25.386;2023-03-23T00:21:42;97122.38;;;10.87;100.00
9439;BME280;5176;42.622;25.386;2023-03-23T00:24:13;97113.91;;;10.84;100.00
9439;BME280;5176;42.622;25.386;2023-03-23T00:26:45;97122.69;;;10.83;100.00
9439;BME280;5176;42.622;25.386;2023-03-23T00:29:17;97125.31;;;10.83;100.00
9439;BME280;5176;42.622;25.386;2023-03-23T00:31:49;97124.47;;;10.82;100.00
9439;BME280;5176;42.622;25.386;2023-03-23T00:34:19;97131.50;;;10.82;100.00
9439;BME280;5176;42.622;25.386;2023-03-23T00:36:49;97131.50;;;10.82;100.00
9439;BME280;5176;42.622;25.386;2023-03-23T00:39:20;97132.72;;;10.76;100.00
9439;BME280;5176;42.622;25.386;2023-03-23T00:41:51;97125.94;;;10.74;100.00
9439;BME280;5176;42.622;25.386;2023-03-23T00:44:22;97127.06;;;10.70;100.00
9439;BME280;5176;42.622;25.386;2023-03-23T00:46:50;97121.53;;;10.74;100.00
9439;BME280;5176;42.622;25.386;2023-03-23T00:49:24;97123.31;;;10.74;100.00
9439;BME280;5176;42.622;25.386;2023-03-23T00:51:55;97125.75;;;10.77;100.00
9439;BME280;5176;42.622;25.386;2023-03-23T00:54:25;97118.72;;;10.77;100.00
9439;BME280;5176;42.622;25.386;2023-03-23T00:56:54;97122.25;;;10.76;100.00
9439;BME280;5176;42.622;25.386;2023-03-23T00:59:25;97113.53;;;10.76;100.00
9439;BME280;5176;42.622;25.386;2023-03-23T01:01:55;97117.31;;;10.72;100.00
9439;BME280;5176;42.622;25.386;2023-03-23T01:04:24;97120.78;;;10.72;100.00
9439;BME280;5176;42.622;25.386;2023-03-23T01:06:55;97126.22;;;10.69;100.00
9439;BME280;5176;42.622;25.386;2023-03-23T01:09:27;97121.75;;;10.71;100.00
9439;BME280;5176;42.622;25.386;2023-03-23T01:11:56;97124.25;;;10.73;100.00
9439;BME280;5176;42.622;25.386;2023-03-23T01:14:27;97122.47;;;10.73;100.00
9439;BME280;5176;42.622;25.386;2023-03-23T01:16:56;97129.19;;;10.77;100.00
9439;BME280;5176;42.622;25.386;2023-03-23T01:19:25;97123.94;;;10.77;100.00
9439;BME280;5176;42.622;25.386;2023-03-23T01:21:55;97123.00;;;10.78;100.00
9439;BME280;5176;42.622;25.386;2023-03-23T01:24:23;97119.22;;;10.82;100.00
9439;BME280;5176;42.622;25.386;2023-03-23T01:26:52;97120.38;;;10.78;100.00
9439;BME280;5176;42.622;25.386;2023-03-23T01:29:21;97119.63;;;10.76;100.00
9439;BME280;5176;42.622;25.386;2023-03-23T01:31:52;97122.69;;;10.70;100.00
9439;BME280;5176;42.622;25.386;2023-03-23T01:34:20;97119.31;;;10.68;100.00
9439;BME280;5176;42.622;25.386;2023-03-23T01:36:50;97115.28;;;10.62;100.00
9439;BME280;5176;42.622;25.386;2023-03-23T01:39:19;97121.31;;;10.64;100.00
9439;BME280;5176;42.622;25.386;2023-03-23T01:41:48;97115.41;;;10.61;100.00
9439;BME280;5176;42.622;25.386;2023-03-23T01:47:24;97117.00;;;10.63;100.00
9439;BME280;5176;42.622;25.386;2023-03-23T01:49:53;97125.56;;;10.53;100.00
9439;BME280;5176;42.622;25.386;2023-03-23T01:52:24;97125.34;;;10.56;100.00
9439;BME280;5176;42.622;25.386;2023-03-23T01:54:57;97123.03;;;10.51;100.00
9439;BME280;5176;42.622;25.386;2023-03-23T01:57:26;97122.22;;;10.51;100.00
9439;BME280;5176;42.622;25.386;2023-03-23T01:59:57;97122.28;;;10.36;100.00
9439;BME280;5176;42.622;25.386;2023-03-23T02:02:29;97122.72;;;10.43;100.00
9439;BME280;5176;42.622;25.386;2023-03-23T02:05:06;97122.59;;;10.45;100.00
9439;BME280;5176;42.622;25.386;2023-03-23T02:07:37;97112.41;;;10.40;100.00
9439;BME280;5176;42.622;25.386;2023-03-23T02:10:06;97111.69;;;10.38;100.00
9439;BME280;5176;42.622;25.386;2023-03-23T02:12:36;97122.78;;;10.42;100.00
9439;BME280;5176;42.622;25.386;2023-03-23T02:15:07;97119.22;;;10.43;100.00
9439;BME280;5176;42.622;25.386;2023-03-23T02:17:41;97117.25;;;10.46;100.00
9439;BME280;5176;42.622;25.386;2023-03-23T02:20:33;97115.38;;;10.48;100.00
9439;BME280;5176;42.622;25.386;2023-03-23T02:23:39;97129.00;;;10.53;100.00
9439;BME280;5176;42.622;25.386;2023-03-23T02:26:22;97128.72;;;10.58;100.00
9439;BME280;5176;42.622;25.386;2023-03-23T02:29:17;97122.53;;;10.59;100.00
9439;BME280;5176;42.622;25.386;2023-03-23T02:32:10;97126.72;;;10.61;100.00
9439;BME280;5176;42.622;25.386;2023-03-23T02:34:45;97133.47;;;10.66;100.00
9439;BME280;5176;42.622;25.386;2023-03-23T02:37:21;97130.72;;;10.67;100.00
9439;BME280;5176;42.622;25.386;2023-03-23T02:39:54;97134.09;;;10.69;100.00
9439;BME280;5176;42.622;25.386;2023-03-23T02:42:27;97131.69;;;10.66;100.00
9439;BME280;5176;42.622;25.386;2023-03-23T02:44:59;97138.81;;;10.64;100.00
9439;BME280;5176;42.622;25.386;2023-03-23T02:47:33;97140.78;;;10.60;100.00
9439;BME280;5176;42.622;25.386;2023-03-23T02:50:10;97144.34;;;10.59;100.00
9439;BME280;5176;42.622;25.386;2023-03-23T02:52:40;97143.69;;;10.56;100.00
9439;BME280;5176;42.622;25.386;2023-03-23T02:55:11;97136.78;;;10.55;100.00
9439;BME280;5176;42.622;25.386;2023-03-23T02:57:41;97151.47;;;10.57;100.00
9439;BME280;5176;42.622;25.386;2023-03-23T03:00:14;97149.47;;;10.61;100.00
9439;BME280;5176;42.622;25.386;2023-03-23T03:02:44;97153.78;;;10.62;100.00
9439;BME280;5176;42.622;25.386;2023-03-23T03:05:29;97153.44;;;10.54;100.00
9439;BME280;5176;42.622;25.386;2023-03-23T03:08:09;97165.31;;;10.59;100.00
9439;BME280;5176;42.622;25.386;2023-03-23T03:10:46;97165.03;;;10.64;100.00
9439;BME280;5176;42.622;25.386;2023-03-23T03:13:24;97159.78;;;10.64;100.00
9439;BME280;5176;42.622;25.386;2023-03-23T03:15:56;97152.94;;;10.61;100.00
9439;BME280;5176;42.622;25.386;2023-03-23T03:18:30;97161.34;;;10.67;100.00
9439;BME280;5176;42.622;25.386;2023-03-23T03:21:04;97159.78;;;10.64;100.00
9439;BME280;5176;42.622;25.386;2023-03-23T03:23:36;97160.50;;;10.66;100.00
9439;BME280;5176;42.622;25.386;2023-03-23T03:26:10;97163.88;;;10.68;100.00
9439;BME280;5176;42.622;25.386;2023-03-23T03:28:40;97169.09;;;10.68;100.00
9439;BME280;5176;42.622;25.386;2023-03-23T03:31:09;97162.28;;;10.66;100.00
9439;BME280;5176;42.622;25.386;2023-03-23T03:33:37;97164.63;;;10.70;100.00
9439;BME280;5176;42.622;25.386;2023-03-23T03:36:15;97162.84;;;10.71;100.00
9439;BME280;5176;42.622;25.386;2023-03-23T03:38:47;97164.31;;;10.75;100.00
9439;BME280;5176;42.622;25.386;2023-03-23T03:41:17;97164.19;;;10.76;100.00
9439;BME280;5176;42.622;25.386;2023-03-23T03:43:47;97170.19;;;10.78;100.00
9439;BME280;5176;42.622;25.386;2023-03-23T03:46:16;97169.38;;;10.78;100.00
9439;BME280;5176;42.622;25.386;2023-03-23T03:48:44;97169.38;;;10.78;100.00
9439;BME280;5176;42.622;25.386;2023-03-23T03:51:16;97169.44;;;10.76;100.00
9439;BME280;5176;42.622;25.386;2023-03-23T03:53:45;97169.94;;;10.69;100.00
9439;BME280;5176;42.622;25.386;2023-03-23T03:56:13;97176.13;;;10.68;100.00
9439;BME280;5176;42.622;25.386;2023-03-23T03:58:43;97176.25;;;10.66;100.00
9439;BME280;5176;42.622;25.386;2023-03-23T04:01:12;97168.72;;;10.47;100.00
9439;BME280;5176;42.622;25.386;2023-03-23T04:03:42;97176.59;;;10.47;100.00
9439;BME280;5176;42.622;25.386;2023-03-23T04:06:11;97169.66;;;10.46;100.00
9439;BME280;5176;42.622;25.386;2023-03-23T04:08:43;97173.13;;;10.47;100.00
9439;BME280;5176;42.622;25.386;2023-03-23T04:11:14;97176.34;;;10.38;100.00
9439;BME280;5176;42.622;25.386;2023-03-23T04:13:43;97171.88;;;10.11;100.00
9439;BME280;5176;42.622;25.386;2023-03-23T04:16:13;97171.91;;;9.97;100.00
9439;BME280;5176;42.622;25.386;2023-03-23T04:18:44;97170.31;;;9.94;100.00
9439;BME280;5176;42.622;25.386;2023-03-23T04:21:15;97182.84;;;9.89;100.00
9439;BME280;5176;42.622;25.386;2023-03-23T04:23:46;97176.75;;;9.89;100.00
9439;BME280;5176;42.622;25.386;2023-03-23T04:26:15;97177.31;;;9.94;100.00
9439;BME280;5176;42.622;25.386;2023-03-23T04:28:44;97193.25;;;9.91;100.00
9439;BME280;5176;42.622;25.386;2023-03-23T04:31:13;97188.53;;;9.96;100.00
9439;BME280;5176;42.622;25.386;2023-03-23T04:33:41;97184.91;;;9.98;100.00
9439;BME280;5176;42.622;25.386;2023-03-23T04:36:11;97189.13;;;9.87;100.00
9439;BME280;5176;42.622;25.386;2023-03-23T04:38:43;97194.63;;;9.82;100.00
9439;BME280;5176;42.622;25.386;2023-03-23T04:41:13;97190.63;;;9.76;100.00
9439;BME280;5176;42.622;25.386;2023-03-23T04:43:42;97195.41;;;9.84;100.00
9439;BME280;5176;42.622;25.386;2023-03-23T04:46:11;97195.41;;;9.84;100.00
9439;BME280;5176;42.622;25.386;2023-03-23T04:48:45;97191.00;;;9.85;100.00
9439;BME280;5176;42.622;25.386;2023-03-23T04:51:14;97188.06;;;9.89;100.00
9439;BME280;5176;42.622;25.386;2023-03-23T04:53:43;97193.03;;;9.94;100.00
9439;BME280;5176;42.622;25.386;2023-03-23T04:56:14;97192.66;;;10.00;100.00
9439;BME280;5176;42.622;25.386;2023-03-23T04:58:42;97192.44;;;10.03;100.00
9439;BME280;5176;42.622;25.386;2023-03-23T05:01:11;97195.94;;;10.03;100.00
9439;BME280;5176;42.622;25.386;2023-03-23T05:03:41;97199.47;;;10.02;100.00
9439;BME280;5176;42.622;25.386;2023-03-23T05:06:10;97217.06;;;10.00;100.00
9439;BME280;5176;42.622;25.386;2023-03-23T05:08:39;97212.56;;;10.02;100.00
9439;BME280;5176;42.622;25.386;2023-03-23T05:11:08;97213.59;;;10.14;100.00
9439;BME280;5176;42.622;25.386;2023-03-23T05:13:38;97216.53;;;10.24;100.00
9439;BME280;5176;42.622;25.386;2023-03-23T05:16:08;97211.91;;;10.27;100.00
9439;BME280;5176;42.622;25.386;2023-03-23T05:18:37;97219.50;;;10.32;100.00
9439;BME280;5176;42.622;25.386;2023-03-23T05:21:05;97229.69;;;10.36;100.00
9439;BME280;5176;42.622;25.386;2023-03-23T05:23:34;97224.97;;;10.42;100.00
9439;BME280;5176;42.622;25.386;2023-03-23T05:26:03;97221.88;;;10.49;100.00
9439;BME280;5176;42.622;25.386;2023-03-23T05:28:34;97225.88;;;10.55;100.00
9439;BME280;5176;42.622;25.386;2023-03-23T05:31:05;97230.63;;;10.62;100.00
9439;BME280;5176;42.622;25.386;2023-03-23T05:33:34;97233.06;;;10.66;100.00
9439;BME280;5176;42.622;25.386;2023-03-23T05:36:03;97230.25;;;10.69;100.00
9439;BME280;5176;42.622;25.386;2023-03-23T05:38:33;97232.47;;;10.75;100.00
9439;BME280;5176;42.622;25.386;2023-03-23T05:41:03;97233.13;;;10.78;99.65
9439;BME280;5176;42.622;25.386;2023-03-23T05:43:33;97241.22;;;10.88;99.53
9439;BME280;5176;42.622;25.386;2023-03-23T05:46:04;97238.88;;;10.98;99.51
9439;BME280;5176;42.622;25.386;2023-03-23T05:48:33;97243.72;;;11.04;98.05
9439;BME280;5176;42.622;25.386;2023-03-23T05:51:03;97242.03;;;11.15;96.96
9439;BME280;5176;42.622;25.386;2023-03-23T05:53:32;97240.28;;;11.29;97.47
9439;BME280;5176;42.622;25.386;2023-03-23T05:56:02;97246.72;;;11.37;95.53
9439;BME280;5176;42.622;25.386;2023-03-23T05:58:31;97245.69;;;11.53;93.71
9439;BME280;5176;42.622;25.386;2023-03-23T06:01:01;97251.50;;;11.70;92.70
9439;BME280;5176;42.622;25.386;2023-03-23T06:03:32;97257.91;;;11.79;90.33
9439;BME280;5176;42.622;25.386;2023-03-23T06:06:03;97253.91;;;11.73;88.00
9439;BME280;5176;42.622;25.386;2023-03-23T06:08:32;97261.78;;;11.73;87.20
9439;BME280;5176;42.622;25.386;2023-03-23T06:11:04;97261.66;;;11.75;88.47
9439;BME280;5176;42.622;25.386;2023-03-23T06:13:34;97272.16;;;11.75;87.88
9439;BME280;5176;42.622;25.386;2023-03-23T06:16:04;97276.16;;;11.68;87.42
9439;BME280;5176;42.622;25.386;2023-03-23T06:18:35;97268.38;;;11.66;87.69
9439;BME280;5176;42.622;25.386;2023-03-23T06:21:07;97274.69;;;11.64;88.88
9439;BME280;5176;42.622;25.386;2023-03-23T06:23:36;97266.81;;;11.64;88.99
9439;BME280;5176;42.622;25.386;2023-03-23T06:26:08;97271.84;;;11.67;89.20
9439;BME280;5176;42.622;25.386;2023-03-23T06:28:37;97273.84;;;11.76;90.35
9439;BME280;5176;42.622;25.386;2023-03-23T06:31:06;97278.38;;;11.74;89.61
9439;BME280;5176;42.622;25.386;2023-03-23T06:33:38;97275.56;;;11.90;90.83
9439;BME280;5176;42.622;25.386;2023-03-23T06:36:08;97273.16;;;11.87;88.84
9439;BME280;5176;42.622;25.386;2023-03-23T06:38:39;97270.75;;;11.84;88.04
9439;BME280;5176;42.622;25.386;2023-03-23T06:41:08;97268.13;;;11.84;88.46
9439;BME280;5176;42.622;25.386;2023-03-23T06:43:38;97273.88;;;11.89;89.20
9439;BME280;5176;42.622;25.386;2023-03-23T06:46:07;97269.03;;;11.95;88.78
9439;BME280;5176;42.622;25.386;2023-03-23T06:48:38;97277.13;;;12.31;89.67
9439;BME280;5176;42.622;25.386;2023-03-23T06:51:07;97275.25;;;12.57;86.61
9439;BME280;5176;42.622;25.386;2023-03-23T06:53:35;97286.31;;;12.62;84.45
9439;BME280;5176;42.622;25.386;2023-03-23T06:56:05;97289.25;;;12.57;85.04
9439;BME280;5176;42.622;25.386;2023-03-23T06:58:34;97279.63;;;12.45;85.24
9439;BME280;5176;42.622;25.386;2023-03-23T07:01:04;97287.28;;;12.48;87.09
9439;BME280;5176;42.622;25.386;2023-03-23T07:03:33;97294.56;;;12.44;86.30
9439;BME280;5176;42.622;25.386;2023-03-23T07:06:06;97287.41;;;12.46;86.13
9439;BME280;5176;42.622;25.386;2023-03-23T07:08:35;97284.78;;;12.34;84.69
9439;BME280;5176;42.622;25.386;2023-03-23T07:11:05;97290.16;;;12.19;85.89
9439;BME280;5176;42.622;25.386;2023-03-23T07:13:34;97289.94;;;12.10;83.80
9439;BME280;5176;42.622;25.386;2023-03-23T07:16:05;97289.53;;;12.16;84.29
9439;BME280;5176;42.622;25.386;2023-03-23T07:18:35;97295.97;;;12.12;83.67
9439;BME280;5176;42.622;25.386;2023-03-23T07:21:06;97298.59;;;12.12;84.45
9439;BME280;5176;42.622;25.386;2023-03-23T07:23:36;97303.31;;;12.19;85.05
9439;BME280;5176;42.622;25.386;2023-03-23T07:26:05;97317.72;;;12.26;82.14
9439;BME280;5176;42.622;25.386;2023-03-23T07:28:34;97312.97;;;12.32;82.06
9439;BME280;5176;42.622;25.386;2023-03-23T07:31:04;97310.78;;;12.25;79.92
9439;BME280;5176;42.622;25.386;2023-03-23T07:33:34;97318.97;;;12.21;79.75
9439;BME280;5176;42.622;25.386;2023-03-23T07:36:07;97322.00;;;12.15;79.27
9439;BME280;5176;42.622;25.386;2023-03-23T07:38:36;97323.50;;;12.19;80.01
9439;BME280;5176;42.622;25.386;2023-03-23T07:41:05;97326.13;;;12.19;80.84
9439;BME280;5176;42.622;25.386;2023-03-23T07:43:34;97333.16;;;12.06;78.79
9439;BME280;5176;42.622;25.386;2023-03-23T07:46:04;97324.22;;;11.95;80.07
9439;BME280;5176;42.622;25.386;2023-03-23T07:48:32;97329.38;;;12.10;81.67
9439;BME280;5176;42.622;25.386;2023-03-23T07:51:01;97328.22;;;12.14;78.50
9439;BME280;5176;42.622;25.386;2023-03-23T07:53:32;97319.78;;;12.34;76.44
9439;BME280;5176;42.622;25.386;2023-03-23T07:56:01;97331.38;;;12.81;76.29
9439;BME280;5176;42.622;25.386;2023-03-23T07:58:30;97336.47;;;13.08;72.32
9439;BME280;5176;42.622;25.386;2023-03-23T08:00:59;97337.88;;;13.38;72.37
9439;BME280;5176;42.622;25.386;2023-03-23T08:03:28;97342.63;;;13.68;69.08
9439;BME280;5176;42.622;25.386;2023-03-23T08:05:58;97341.19;;;13.99;69.04
9439;BME280;5176;42.622;25.386;2023-03-23T08:08:28;97339.63;;;14.07;65.99
9439;BME280;5176;42.622;25.386;2023-03-23T08:10:59;97344.09;;;14.29;66.32
9439;BME280;5176;42.622;25.386;2023-03-23T08:13:27;97351.50;;;14.13;66.21
9439;BME280;5176;42.622;25.386;2023-03-23T08:15:56;97355.63;;;13.82;66.59
9439;BME280;5176;42.622;25.386;2023-03-23T08:18:25;97366.59;;;13.65;68.66
9439;BME280;5176;42.622;25.386;2023-03-23T08:20:55;97364.22;;;13.49;69.55
9439;BME280;5176;42.622;25.386;2023-03-23T08:23:25;97364.28;;;13.36;69.54
9439;BME280;5176;42.622;25.386;2023-03-23T08:25:54;97361.94;;;13.07;70.01
9439;BME280;5176;42.622;25.386;2023-03-23T08:28:25;97361.72;;;13.10;69.70
9439;BME280;5176;42.622;25.386;2023-03-23T08:30:55;97354.41;;;12.90;69.33
9439;BME280;5176;42.622;25.386;2023-03-23T08:33:24;97355.91;;;12.81;69.23
9439;BME280;5176;42.622;25.386;2023-03-23T08:35:55;97362.13;;;12.80;70.47
9439;BME280;5176;42.622;25.386;2023-03-23T08:38:24;97364.75;;;12.80;69.86
9439;BME280;5176;42.622;25.386;2023-03-23T08:40:57;97367.56;;;12.90;70.56
9439;BME280;5176;42.622;25.386;2023-03-23T08:43:28;97363.03;;;12.92;72.62
9439;BME280;5176;42.622;25.386;2023-03-23T08:45:57;97360.31;;;12.94;73.67
9439;BME280;5176;42.622;25.386;2023-03-23T08:48:27;97363.72;;;13.07;73.01
9439;BME280;5176;42.622;25.386;2023-03-23T08:50:56;97370.25;;;13.14;71.18
9439;BME280;5176;42.622;25.386;2023-03-23T08:53:26;97366.25;;;13.21;70.13
9439;BME280;5176;42.622;25.386;2023-03-23T08:56:03;97369.94;;;13.06;69.41
9439;BME280;5176;42.622;25.386;2023-03-23T08:58:34;97366.44;;;13.18;70.71
9439;BME280;5176;42.622;25.386;2023-03-23T09:01:05;97377.28;;;13.26;69.83
9439;BME280;5176;42.622;25.386;2023-03-23T09:03:35;97378.53;;;13.33;68.42
9439;BME280;5176;42.622;25.386;2023-03-23T09:06:06;97376.41;;;13.39;68.27
9439;BME280;5176;42.622;25.386;2023-03-23T09:08:35;97372.19;;;13.36;66.95
9439;BME280;5176;42.622;25.386;2023-03-23T09:11:06;97372.56;;;13.43;66.80
9439;BME280;5176;42.622;25.386;2023-03-23T09:13:39;97364.06;;;13.39;64.70
9439;BME280;5176;42.622;25.386;2023-03-23T09:16:08;97368.25;;;13.42;65.82
9439;BME280;5176;42.622;25.386;2023-03-23T09:18:37;97380.03;;;13.49;65.33
9439;BME280;5176;42.622;25.386;2023-03-23T09:21:07;97381.94;;;13.47;65.12
9439;BME280;5176;42.622;25.386;2023-03-23T09:23:36;97368.50;;;13.39;64.66
9439;BME280;5176;42.622;25.386;2023-03-23T09:26:06;97373.69;;;13.27;65.48
9439;BME280;5176;42.622;25.386;2023-03-23T09:28:35;97371.31;;;13.24;65.43
9439;BME280;5176;42.622;25.386;2023-03-23T09:31:05;97375.69;;;13.24;65.55
9439;BME280;5176;42.622;25.386;2023-03-23T09:33:35;97372.34;;;13.22;64.92
9439;BME280;5176;42.622;25.386;2023-03-23T09:36:04;97378.25;;;13.13;66.32
9439;BME280;5176;42.622;25.386;2023-03-23T09:38:35;97381.09;;;13.09;66.53
9439;BME280;5176;42.622;25.386;2023-03-23T09:44:01;97384.09;;;12.92;64.62
9439;BME280;5176;42.622;25.386;2023-03-23T09:46:44;97386.28;;;12.98;66.39
9439;BME280;5176;42.622;25.386;2023-03-23T09:49:18;97369.75;;;12.96;67.65
9439;BME280;5176;42.622;25.386;2023-03-23T09:51:51;97386.88;;;13.15;66.81
9439;BME280;5176;42.622;25.386;2023-03-23T09:54:26;97388.91;;;12.98;64.94
9439;BME280;5176;42.622;25.386;2023-03-23T09:56:58;97389.13;;;12.95;66.29
9439;BME280;5176;42.622;25.386;2023-03-23T09:59:33;97383.75;;;12.97;65.96
9439;BME280;5176;42.622;25.386;2023-03-23T10:02:12;97382.81;;;12.98;66.55
9439;BME280;5176;42.622;25.386;2023-03-23T10:04:45;97384.94;;;12.93;66.15
9439;BME280;5176;42.622;25.386;2023-03-23T10:07:17;97387.44;;;12.94;68.00
9439;BME280;5176;42.622;25.386;2023-03-23T10:09:47;97379.66;;;12.93;67.10
9439;BME280;5176;42.622;25.386;2023-03-23T10:12:27;97386.38;;;12.97;68.18
9439;BME280;5176;42.622;25.386;2023-03-23T10:15:10;97381.75;;;13.00;67.51
9439;BME280;5176;42.622;25.386;2023-03-23T10:17:46;97386.84;;;12.91;68.06
9439;BME280;5176;42.622;25.386;2023-03-23T10:20:27;97385.47;;;12.85;68.67
9439;BME280;5176;42.622;25.386;2023-03-23T10:23:04;97390.41;;;12.90;68.74
9439;BME280;5176;42.622;25.386;2023-03-23T10:25:40;97385.06;;;12.91;69.88
9439;BME280;5176;42.622;25.386;2023-03-23T10:28:11;97386.72;;;12.92;70.32
9439;BME280;5176;42.622;25.386;2023-03-23T10:30:41;97389.34;;;12.92;68.49
9439;BME280;5176;42.622;25.386;2023-03-23T10:33:16;97380.06;;;12.99;69.55
9439;BME280;5176;42.622;25.386;2023-03-23T10:35:50;97374.97;;;13.09;68.69
9439;BME280;5176;42.622;25.386;2023-03-23T10:38:23;97376.44;;;13.26;69.32
9439;BME280;5176;42.622;25.386;2023-03-23T10:40:55;97381.34;;;13.30;66.65
9439;BME280;5176;42.622;25.386;2023-03-23T10:43:25;97380.75;;;13.27;67.04
9439;BME280;5176;42.622;25.386;2023-03-23T10:45:59;97378.84;;;13.29;66.71
9439;BME280;5176;42.622;25.386;2023-03-23T10:48:33;97372.63;;;13.30;65.73
9439;BME280;5176;42.622;25.386;2023-03-23T10:51:08;97370.94;;;13.29;65.35
9439;BME280;5176;42.622;25.386;2023-03-23T10:53:43;97373.47;;;13.30;64.86
9439;BME280;5176;42.622;25.386;2023-03-23T10:56:22;97369.38;;;13.26;64.55
9439;BME280;5176;42.622;25.386;2023-03-23T10:58:51;97345.59;;;13.15;65.62
9439;BME280;5176;42.622;25.386;2023-03-23T11:01:29;97373.81;;;13.26;64.49
9439;BME280;5176;42.622;25.386;2023-03-23T11:04:00;97366.19;;;13.34;65.91
9439;BME280;5176;42.622;25.386;2023-03-23T11:06:31;97359.84;;;13.36;65.06
9439;BME280;5176;42.622;25.386;2023-03-23T11:09:11;97363.03;;;13.29;64.36
9439;BME280;5176;42.622;25.386;2023-03-23T11:11:41;97368.53;;;13.26;65.42
9439;BME280;5176;42.622;25.386;2023-03-23T11:14:17;97360.53;;;13.27;66.27
9439;BME280;5176;42.622;25.386;2023-03-23T11:16:51;97360.78;;;13.24;65.14
9439;BME280;5176;42.622;25.386;2023-03-23T11:19:25;97358.53;;;13.18;66.11
9439;BME280;5176;42.622;25.386;2023-03-23T11:22:05;97356.75;;;13.19;66.67
9439;BME280;5176;42.622;25.386;2023-03-23T11:24:36;97350.13;;;13.26;65.81
9439;BME280;5176;42.622;25.386;2023-03-23T11:27:10;97344.88;;;13.37;65.75
9439;BME280;5176;42.622;25.386;2023-03-23T11:29:46;97351.56;;;13.54;65.79
9439;BME280;5176;42.622;25.386;2023-03-23T11:32:15;97345.72;;;13.61;64.78
9439;BME280;5176;42.622;25.386;2023-03-23T11:34:48;97346.28;;;13.78;63.77
9439;BME280;5176;42.622;25.386;2023-03-23T11:37:25;97342.81;;;13.88;63.62
9439;BME280;5176;42.622;25.386;2023-03-23T11:39:58;97327.63;;;14.03;62.64
9439;BME280;5176;42.622;25.386;2023-03-23T11:42:45;97332.59;;;14.19;62.53
9439;BME280;5176;42.622;25.386;2023-03-23T11:45:18;97325.13;;;14.24;60.17
9439;BME280;5176;42.622;25.386;2023-03-23T11:47:55;97320.75;;;14.25;59.46
9439;BME280;5176;42.622;25.386;2023-03-23T11:50:30;97325.88;;;14.26;58.54
9439;BME280;5176;42.622;25.386;2023-03-23T11:53:06;97324.09;;;14.27;56.34
9439;BME280;5176;42.622;25.386;2023-03-23T11:55:54;97325.28;;;14.34;58.51
9439;BME280;5176;42.622;25.386;2023-03-23T11:58:24;97323.22;;;14.37;57.18
9439;BME280;5176;42.622;25.386;2023-03-23T12:01:04;97308.03;;;14.63;56.78
9439;BME280;5176;42.622;25.386;2023-03-23T12:03:49;97312.78;;;15.03;56.36
9439;BME280;5176;42.622;25.386;2023-03-23T12:06:28;97301.66;;;15.32;54.26
9439;BME280;5176;42.622;25.386;2023-03-23T12:09:09;97295.09;;;15.58;56.22
9439;BME280;5176;42.622;25.386;2023-03-23T12:11:49;97288.41;;;15.75;54.86
9439;BME280;5176;42.622;25.386;2023-03-23T12:14:29;97296.47;;;15.73;51.45
9439;BME280;5176;42.622;25.386;2023-03-23T12:17:10;97295.03;;;15.69;53.05
9439;BME280;5176;42.622;25.386;2023-03-23T12:19:50;97293.97;;;15.72;53.77
9439;BME280;5176;42.622;25.386;2023-03-23T12:22:44;97295.44;;;15.53;53.00
9439;BME280;5176;42.622;25.386;2023-03-23T12:25:32;97307.00;;;15.52;51.98
9439;BME280;5176;42.622;25.386;2023-03-23T12:28:17;97296.75;;;15.59;52.97
9439;BME280;5176;42.622;25.386;2023-03-23T19:07:06;97411.53;;;10.77;76.28
9439;BME280;5176;42.622;25.386;2023-03-23T19:09:35;97419.47;;;10.75;75.90
9439;BME280;5176;42.622;25.386;2023-03-23T19:12:05;97413.75;;;10.69;76.88
9439;BME280;5176;42.622;25.386;2023-03-23T19:14:34;97425.94;;;10.70;76.63
9439;BME280;5176;42.622;25.386;2023-03-23T19:17:03;97416.28;;;10.56;77.09
9439;BME280;5176;42.622;25.386;2023-03-23T19:19:32;97425.09;;;10.55;77.64
9439;BME280;5176;42.622;25.386;2023-03-23T19:22:01;97427.16;;;10.50;78.61
9439;BME280;5176;42.622;25.386;2023-03-23T19:24:33;97425.19;;;10.53;77.60
9439;BME280;5176;42.622;25.386;2023-03-23T19:27:02;97428.19;;;10.47;77.19
9439;BME280;5176;42.622;25.386;2023-03-23T19:29:31;97419.00;;;10.40;78.02
9439;BME280;5176;42.622;25.386;2023-03-23T19:32:01;97428.06;;;10.34;79.09
9439;BME280;5176;42.622;25.386;2023-03-23T19:34:29;97429.75;;;10.35;77.94
9439;BME280;5176;42.622;25.386;2023-03-23T19:36:59;97425.66;;;10.31;78.28
9439;BME280;5176;42.622;25.386;2023-03-23T19:39:29;97436.28;;;10.28;78.79
9439;BME280;5176;42.622;25.386;2023-03-23T19:42:00;97433.13;;;10.23;78.67
9439;BME280;5176;42.622;25.386;2023-03-23T19:44:29;97433.03;;;10.25;78.14
9439;BME280;5176;42.622;25.386;2023-03-23T19:46:57;97439.34;;;10.21;78.64
9439;BME280;5176;42.622;25.386;2023-03-23T19:49:27;97437.75;;;10.18;78.42
9439;BME280;5176;42.622;25.386;2023-03-23T19:51:56;97438.97;;;10.13;79.08
9439;BME280;5176;42.622;25.386;2023-03-23T19:54:25;97441.19;;;10.04;78.41
9439;BME280;5176;42.622;25.386;2023-03-23T19:56:54;97440.69;;;9.98;79.10
9439;BME280;5176;42.622;25.386;2023-03-23T19:59:25;97452.28;;;9.94;79.56
9439;BME280;5176;42.622;25.386;2023-03-23T20:02:05;97450.63;;;9.77;80.48
9439;BME280;5176;42.622;25.386;2023-03-23T20:04:34;97454.34;;;9.73;80.18
9439;BME280;5176;42.622;25.386;2023-03-23T20:07:03;97446.94;;;9.49;79.84
9439;BME280;5176;42.622;25.386;2023-03-23T20:09:33;97450.59;;;9.31;81.02
9439;BME280;5176;42.622;25.386;2023-03-23T20:12:02;97443.94;;;9.25;80.93
9439;BME280;5176;42.622;25.386;2023-03-23T20:17:00;97444.78;;;9.26;82.13